sensor_id;sensor_type;location;lat;lon;timestamp;P1;durP1;ratioP1;P2;durP2;ratioP2
72639;SDS011;60683;51.730;8.762;2023-03-29T00:00:01;3.85;;;1.70;;
72639;SDS011;60683;51.730;8.762;2023-03-29T00:02:50;4.22;;;1.65;;
72639;SDS011;60683;51.730;8.762;2023-03-29T00:05:21;6.82;;;1.90;;
72639;SDS011;60683;51.730;8.762;2023-03-29T00:07:51;6.75;;;2.20;;
72639;SDS011;60683;51.730;8.762;2023-03-29T00:10:27;4.25;;;1.75;;
72639;SDS011;60683;51.730;8.762;2023-03-29T00:12:54;4.47;;;1.55;;
72639;SDS011;60683;51.730;8.762;2023-03-29T00:15:22;3.85;;;1.67;;
72639;SDS011;60683;51.730;8.762;2023-03-29T00:17:50;4.07;;;1.95;;
72639;SDS011;60683;51.730;8.762;2023-03-29T00:20:18;4.65;;;1.73;;
72639;SDS011;60683;51.730;8.762;2023-03-29T00:22:45;5.60;;;2.00;;
72639;SDS011;60683;51.730;8.762;2023-03-29T00:25:15;3.85;;;1.55;;
72639;SDS011;60683;51.730;8.762;2023-03-29T00:27:42;5.40;;;1.95;;
72639;SDS011;60683;51.730;8.762;2023-03-29T00:30:11;4.10;;;1.73;;
72639;SDS011;60683;51.730;8.762;2023-03-29T00:32:39;4.97;;;1.80;;
72639;SDS011;60683;51.730;8.762;2023-03-29T00:35:08;5.47;;;1.70;;
72639;SDS011;60683;51.730;8.762;2023-03-29T00:37:35;3.35;;;1.70;;
72639;SDS011;60683;51.730;8.762;2023-03-29T00:40:05;5.53;;;1.80;;
72639;SDS011;60683;51.730;8.762;2023-03-29T00:42:37;5.78;;;2.10;;
72639;SDS011;60683;51.730;8.762;2023-03-29T00:45:09;3.20;;;1.73;;
72639;SDS011;60683;51.730;8.762;2023-03-29T00:47:44;5.82;;;2.00;;
72639;SDS011;60683;51.730;8.762;2023-03-29T00:50:14;8.02;;;2.30;;
72639;SDS011;60683;51.730;8.762;2023-03-29T00:52:44;1.40;;;0.70;;
72639;SDS011;60683;51.730;8.762;2023-03-29T00:57:43;3.15;;;1.55;;
72639;SDS011;60683;51.730;8.762;2023-03-29T01:02:43;4.47;;;1.63;;
72639;SDS011;60683;51.730;8.762;2023-03-29T01:05:17;5.10;;;1.92;;
72639;SDS011;60683;51.730;8.762;2023-03-29T01:07:48;3.40;;;1.40;;
72639;SDS011;60683;51.730;8.762;2023-03-29T01:10:20;4.65;;;1.92;;
72639;SDS011;60683;51.730;8.762;2023-03-29T01:12:55;4.80;;;1.73;;
72639;SDS011;60683;51.730;8.762;2023-03-29T01:15:26;4.90;;;1.90;;
72639;SDS011;60683;51.730;8.762;2023-03-29T01:17:55;4.10;;;1.65;;
72639;SDS011;60683;51.730;8.762;2023-03-29T01:20:25;6.10;;;2.22;;
72639;SDS011;60683;51.730;8.762;2023-03-29T01:23:02;3.22;;;1.70;;
72639;SDS011;60683;51.730;8.762;2023-03-29T01:25:40;4.30;;;1.90;;
72639;SDS011;60683;51.730;8.762;2023-03-29T01:28:13;4.53;;;1.88;;
72639;SDS011;60683;51.730;8.762;2023-03-29T01:30:43;3.33;;;1.58;;
72639;SDS011;60683;51.730;8.762;2023-03-29T01:33:15;3.88;;;1.73;;
72639;SDS011;60683;51.730;8.762;2023-03-29T01:35:46;3.85;;;1.70;;
72639;SDS011;60683;51.730;8.762;2023-03-29T01:38:16;5.07;;;1.88;;
72639;SDS011;60683;51.730;8.762;2023-03-29T01:40:46;3.40;;;1.52;;
72639;SDS011;60683;51.730;8.762;2023-03-29T01:43:17;4.95;;;1.90;;
72639;SDS011;60683;51.730;8.762;2023-03-29T01:45:53;4.47;;;1.80;;
72639;SDS011;60683;51.730;8.762;2023-03-29T01:48:25;5.20;;;1.75;;
72639;SDS011;60683;51.730;8.762;2023-03-29T01:50:54;5.38;;;1.75;;
72639;SDS011;60683;51.730;8.762;2023-03-29T01:53:27;3.25;;;1.30;;
72639;SDS011;60683;51.730;8.762;2023-03-29T01:55:58;3.78;;;1.63;;
72639;SDS011;60683;51.730;8.762;2023-03-29T01:58:31;4.55;;;2.08;;
72639;SDS011;60683;51.730;8.762;2023-03-29T02:01:00;4.50;;;1.92;;
72639;SDS011;60683;51.730;8.762;2023-03-29T02:03:30;3.85;;;1.52;;
72639;SDS011;60683;51.730;8.762;2023-03-29T02:05:59;4.15;;;1.80;;
72639;SDS011;60683;51.730;8.762;2023-03-29T02:08:28;4.05;;;2.03;;
72639;SDS011;60683;51.730;8.762;2023-03-29T02:10:56;5.38;;;2.13;;
72639;SDS011;60683;51.730;8.762;2023-03-29T02:13:24;6.43;;;2.15;;
72639;SDS011;60683;51.730;8.762;2023-03-29T02:15:53;7.15;;;2.65;;
72639;SDS011;60683;51.730;8.762;2023-03-29T02:18:21;4.65;;;2.40;;
72639;SDS011;60683;51.730;8.762;2023-03-29T02:20:49;4.15;;;2.63;;
72639;SDS011;60683;51.730;8.762;2023-03-29T02:23:18;4.10;;;2.17;;
72639;SDS011;60683;51.730;8.762;2023-03-29T02:25:48;5.57;;;2.17;;
72639;SDS011;60683;51.730;8.762;2023-03-29T02:28:18;6.22;;;2.35;;
72639;SDS011;60683;51.730;8.762;2023-03-29T02:30:47;6.15;;;1.98;;
72639;SDS011;60683;51.730;8.762;2023-03-29T02:33:19;7.65;;;2.75;;
72639;SDS011;60683;51.730;8.762;2023-03-29T02:35:50;4.28;;;2.10;;
72639;SDS011;60683;51.730;8.762;2023-03-29T02:38:19;6.82;;;2.28;;
72639;SDS011;60683;51.730;8.762;2023-03-29T02:40:50;6.15;;;2.72;;
72639;SDS011;60683;51.730;8.762;2023-03-29T02:43:18;4.82;;;1.95;;
72639;SDS011;60683;51.730;8.762;2023-03-29T02:45:47;6.45;;;2.28;;
72639;SDS011;60683;51.730;8.762;2023-03-29T02:48:16;4.30;;;2.65;;
72639;SDS011;60683;51.730;8.762;2023-03-29T02:50:46;4.88;;;2.25;;
72639;SDS011;60683;51.730;8.762;2023-03-29T02:53:16;6.60;;;2.40;;
72639;SDS011;60683;51.730;8.762;2023-03-29T02:55:46;6.53;;;2.53;;
72639;SDS011;60683;51.730;8.762;2023-03-29T02:58:13;5.25;;;2.80;;
72639;SDS011;60683;51.730;8.762;2023-03-29T03:00:42;4.63;;;2.20;;
72639;SDS011;60683;51.730;8.762;2023-03-29T03:03:11;5.00;;;2.30;;
72639;SDS011;60683;51.730;8.762;2023-03-29T03:05:40;5.22;;;2.20;;
72639;SDS011;60683;51.730;8.762;2023-03-29T03:08:09;4.47;;;2.00;;
72639;SDS011;60683;51.730;8.762;2023-03-29T03:10:37;5.68;;;2.10;;
72639;SDS011;60683;51.730;8.762;2023-03-29T03:13:04;3.17;;;1.70;;
72639;SDS011;60683;51.730;8.762;2023-03-29T03:15:32;4.40;;;2.10;;
72639;SDS011;60683;51.730;8.762;2023-03-29T03:18:00;4.60;;;2.15;;
72639;SDS011;60683;51.730;8.762;2023-03-29T03:20:28;5.35;;;2.10;;
72639;SDS011;60683;51.730;8.762;2023-03-29T03:22:57;6.07;;;2.00;;
72639;SDS011;60683;51.730;8.762;2023-03-29T03:25:26;4.47;;;1.75;;
72639;SDS011;60683;51.730;8.762;2023-03-29T03:27:54;4.03;;;1.98;;
72639;SDS011;60683;51.730;8.762;2023-03-29T03:30:22;3.90;;;1.77;;
72639;SDS011;60683;51.730;8.762;2023-03-29T03:32:50;4.10;;;1.90;;
72639;SDS011;60683;51.730;8.762;2023-03-29T03:35:19;5.57;;;2.22;;
72639;SDS011;60683;51.730;8.762;2023-03-29T03:37:47;5.13;;;2.50;;
72639;SDS011;60683;51.730;8.762;2023-03-29T03:40:15;4.90;;;2.20;;
72639;SDS011;60683;51.730;8.762;2023-03-29T03:42:44;5.28;;;2.10;;
72639;SDS011;60683;51.730;8.762;2023-03-29T03:45:12;5.88;;;2.25;;
72639;SDS011;60683;51.730;8.762;2023-03-29T03:47:40;5.93;;;2.35;;
72639;SDS011;60683;51.730;8.762;2023-03-29T03:50:09;4.95;;;2.25;;
72639;SDS011;60683;51.730;8.762;2023-03-29T03:52:37;4.72;;;2.30;;
72639;SDS011;60683;51.730;8.762;2023-03-29T03:55:04;3.97;;;2.05;;
72639;SDS011;60683;51.730;8.762;2023-03-29T03:57:33;3.92;;;2.05;;
72639;SDS011;60683;51.730;8.762;2023-03-29T04:00:04;5.63;;;2.38;;
72639;SDS011;60683;51.730;8.762;2023-03-29T04:02:44;5.68;;;2.50;;
72639;SDS011;60683;51.730;8.762;2023-03-29T04:05:12;5.90;;;2.15;;
72639;SDS011;60683;51.730;8.762;2023-03-29T04:07:39;4.25;;;1.92;;
72639;SDS011;60683;51.730;8.762;2023-03-29T04:10:08;6.88;;;2.83;;
72639;SDS011;60683;51.730;8.762;2023-03-29T04:12:36;4.60;;;2.42;;
72639;SDS011;60683;51.730;8.762;2023-03-29T04:15:05;5.85;;;2.13;;
72639;SDS011;60683;51.730;8.762;2023-03-29T04:17:33;7.38;;;2.35;;
72639;SDS011;60683;51.730;8.762;2023-03-29T04:20:01;6.00;;;2.33;;
72639;SDS011;60683;51.730;8.762;2023-03-29T04:22:34;4.60;;;2.05;;
72639;SDS011;60683;51.730;8.762;2023-03-29T04:25:02;6.80;;;2.13;;
72639;SDS011;60683;51.730;8.762;2023-03-29T04:27:31;4.93;;;2.30;;
72639;SDS011;60683;51.730;8.762;2023-03-29T04:29:58;4.45;;;2.22;;
72639;SDS011;60683;51.730;8.762;2023-03-29T04:32:28;3.67;;;2.00;;
72639;SDS011;60683;51.730;8.762;2023-03-29T04:34:56;5.78;;;2.03;;
72639;SDS011;60683;51.730;8.762;2023-03-29T04:37:24;4.43;;;2.00;;
72639;SDS011;60683;51.730;8.762;2023-03-29T04:39:53;3.58;;;1.83;;
72639;SDS011;60683;51.730;8.762;2023-03-29T04:42:20;3.78;;;1.70;;
72639;SDS011;60683;51.730;8.762;2023-03-29T04:44:48;5.82;;;1.73;;
72639;SDS011;60683;51.730;8.762;2023-03-29T04:47:15;3.92;;;1.83;;
72639;SDS011;60683;51.730;8.762;2023-03-29T04:49:44;4.47;;;2.33;;
72639;SDS011;60683;51.730;8.762;2023-03-29T04:52:12;4.40;;;1.98;;
72639;SDS011;60683;51.730;8.762;2023-03-29T04:54:39;4.88;;;1.88;;
72639;SDS011;60683;51.730;8.762;2023-03-29T04:57:07;4.30;;;1.83;;
72639;SDS011;60683;51.730;8.762;2023-03-29T04:59:35;4.18;;;1.90;;
72639;SDS011;60683;51.730;8.762;2023-03-29T05:02:03;7.53;;;2.35;;
72639;SDS011;60683;51.730;8.762;2023-03-29T05:04:30;4.50;;;1.75;;
72639;SDS011;60683;51.730;8.762;2023-03-29T05:06:59;4.32;;;1.80;;
72639;SDS011;60683;51.730;8.762;2023-03-29T05:09:28;6.63;;;2.38;;
72639;SDS011;60683;51.730;8.762;2023-03-29T05:11:55;3.65;;;1.70;;
72639;SDS011;60683;51.730;8.762;2023-03-29T05:14:23;3.22;;;1.45;;
72639;SDS011;60683;51.730;8.762;2023-03-29T05:16:51;3.95;;;1.42;;
72639;SDS011;60683;51.730;8.762;2023-03-29T05:19:18;3.25;;;1.60;;
72639;SDS011;60683;51.730;8.762;2023-03-29T05:21:48;5.40;;;1.83;;
72639;SDS011;60683;51.730;8.762;2023-03-29T05:24:17;5.20;;;1.55;;
72639;SDS011;60683;51.730;8.762;2023-03-29T05:26:45;5.03;;;1.75;;
72639;SDS011;60683;51.730;8.762;2023-03-29T05:29:12;3.85;;;1.77;;
72639;SDS011;60683;51.730;8.762;2023-03-29T05:31:40;3.08;;;1.30;;
72639;SDS011;60683;51.730;8.762;2023-03-29T05:34:07;4.28;;;1.63;;
72639;SDS011;60683;51.730;8.762;2023-03-29T05:36:35;5.35;;;1.70;;
72639;SDS011;60683;51.730;8.762;2023-03-29T05:39:03;4.05;;;1.95;;
72639;SDS011;60683;51.730;8.762;2023-03-29T05:41:32;3.13;;;1.40;;
72639;SDS011;60683;51.730;8.762;2023-03-29T05:44:00;3.10;;;1.50;;
72639;SDS011;60683;51.730;8.762;2023-03-29T05:46:27;3.47;;;1.63;;
72639;SDS011;60683;51.730;8.762;2023-03-29T05:48:55;4.20;;;1.63;;
72639;SDS011;60683;51.730;8.762;2023-03-29T05:51:22;4.68;;;1.80;;
72639;SDS011;60683;51.730;8.762;2023-03-29T05:53:50;3.60;;;1.40;;
72639;SDS011;60683;51.730;8.762;2023-03-29T05:56:18;5.57;;;1.55;;
72639;SDS011;60683;51.730;8.762;2023-03-29T05:58:47;3.63;;;1.58;;
72639;SDS011;60683;51.730;8.762;2023-03-29T06:01:15;3.45;;;1.30;;
72639;SDS011;60683;51.730;8.762;2023-03-29T06:03:43;4.50;;;2.03;;
72639;SDS011;60683;51.730;8.762;2023-03-29T06:06:12;4.20;;;1.48;;
72639;SDS011;60683;51.730;8.762;2023-03-29T06:08:41;4.80;;;1.88;;
72639;SDS011;60683;51.730;8.762;2023-03-29T06:11:09;5.47;;;2.00;;
72639;SDS011;60683;51.730;8.762;2023-03-29T06:13:38;3.85;;;1.75;;
72639;SDS011;60683;51.730;8.762;2023-03-29T06:16:10;3.60;;;1.45;;
72639;SDS011;60683;51.730;8.762;2023-03-29T06:18:39;5.22;;;1.60;;
72639;SDS011;60683;51.730;8.762;2023-03-29T06:21:07;3.33;;;1.25;;
72639;SDS011;60683;51.730;8.762;2023-03-29T06:23:35;3.92;;;1.90;;
72639;SDS011;60683;51.730;8.762;2023-03-29T06:26:06;5.10;;;2.33;;
72639;SDS011;60683;51.730;8.762;2023-03-29T06:28:35;5.47;;;2.10;;
72639;SDS011;60683;51.730;8.762;2023-03-29T06:31:03;2.45;;;1.20;;
72639;SDS011;60683;51.730;8.762;2023-03-29T06:33:32;4.88;;;2.10;;
72639;SDS011;60683;51.730;8.762;2023-03-29T06:36:02;4.07;;;1.92;;
72639;SDS011;60683;51.730;8.762;2023-03-29T06:38:31;6.40;;;2.05;;
72639;SDS011;60683;51.730;8.762;2023-03-29T06:41:00;3.75;;;1.63;;
72639;SDS011;60683;51.730;8.762;2023-03-29T06:43:28;3.50;;;1.25;;
72639;SDS011;60683;51.730;8.762;2023-03-29T06:45:57;5.80;;;1.85;;
72639;SDS011;60683;51.730;8.762;2023-03-29T06:48:25;5.05;;;1.55;;
72639;SDS011;60683;51.730;8.762;2023-03-29T06:50:54;4.15;;;1.80;;
72639;SDS011;60683;51.730;8.762;2023-03-29T06:53:21;2.78;;;1.10;;
72639;SDS011;60683;51.730;8.762;2023-03-29T06:55:49;4.28;;;1.58;;
72639;SDS011;60683;51.730;8.762;2023-03-29T06:58:17;5.10;;;1.75;;
72639;SDS011;60683;51.730;8.762;2023-03-29T07:00:45;5.15;;;1.55;;
72639;SDS011;60683;51.730;8.762;2023-03-29T07:03:13;4.22;;;1.65;;
72639;SDS011;60683;51.730;8.762;2023-03-29T07:05:45;3.78;;;1.27;;
72639;SDS011;60683;51.730;8.762;2023-03-29T07:08:14;3.97;;;1.73;;
72639;SDS011;60683;51.730;8.762;2023-03-29T07:10:42;4.57;;;1.67;;
72639;SDS011;60683;51.730;8.762;2023-03-29T07:13:12;5.07;;;1.58;;
72639;SDS011;60683;51.730;8.762;2023-03-29T07:15:40;3.08;;;1.52;;
72639;SDS011;60683;51.730;8.762;2023-03-29T07:18:08;4.60;;;1.60;;
72639;SDS011;60683;51.730;8.762;2023-03-29T07:20:36;6.20;;;1.63;;
72639;SDS011;60683;51.730;8.762;2023-03-29T07:23:04;4.47;;;1.35;;
72639;SDS011;60683;51.730;8.762;2023-03-29T07:25:34;7.10;;;2.40;;
72639;SDS011;60683;51.730;8.762;2023-03-29T07:28:03;7.45;;;1.52;;
72639;SDS011;60683;51.730;8.762;2023-03-29T07:30:31;5.93;;;1.80;;
72639;SDS011;60683;51.730;8.762;2023-03-29T07:32:59;2.63;;;1.40;;
72639;SDS011;60683;51.730;8.762;2023-03-29T07:35:26;4.63;;;1.80;;
72639;SDS011;60683;51.730;8.762;2023-03-29T07:37:55;3.38;;;1.70;;
72639;SDS011;60683;51.730;8.762;2023-03-29T07:40:23;2.88;;;1.23;;
72639;SDS011;60683;51.730;8.762;2023-03-29T07:42:53;4.70;;;1.70;;
72639;SDS011;60683;51.730;8.762;2023-03-29T07:45:21;4.28;;;1.98;;
72639;SDS011;60683;51.730;8.762;2023-03-29T07:47:52;7.22;;;2.03;;
72639;SDS011;60683;51.730;8.762;2023-03-29T07:52:48;4.65;;;1.80;;
72639;SDS011;60683;51.730;8.762;2023-03-29T07:55:16;4.32;;;2.17;;
72639;SDS011;60683;51.730;8.762;2023-03-29T07:57:43;5.35;;;2.13;;
72639;SDS011;60683;51.730;8.762;2023-03-29T08:00:13;4.97;;;1.92;;
72639;SDS011;60683;51.730;8.762;2023-03-29T08:02:42;6.38;;;2.35;;
72639;SDS011;60683;51.730;8.762;2023-03-29T08:05:09;7.30;;;2.08;;
72639;SDS011;60683;51.730;8.762;2023-03-29T08:07:39;4.18;;;2.22;;
72639;SDS011;60683;51.730;8.762;2023-03-29T08:10:07;3.55;;;1.77;;
72639;SDS011;60683;51.730;8.762;2023-03-29T08:12:36;3.67;;;1.73;;
72639;SDS011;60683;51.730;8.762;2023-03-29T08:15:04;6.28;;;2.40;;
72639;SDS011;60683;51.730;8.762;2023-03-29T08:17:34;5.53;;;2.25;;
72639;SDS011;60683;51.730;8.762;2023-03-29T08:20:02;4.70;;;1.88;;
72639;SDS011;60683;51.730;8.762;2023-03-29T08:22:31;5.75;;;2.17;;
72639;SDS011;60683;51.730;8.762;2023-03-29T08:24:58;4.22;;;2.00;;
72639;SDS011;60683;51.730;8.762;2023-03-29T08:27:26;5.78;;;2.15;;
72639;SDS011;60683;51.730;8.762;2023-03-29T08:29:54;5.22;;;2.15;;
72639;SDS011;60683;51.730;8.762;2023-03-29T08:32:22;7.68;;;2.30;;
72639;SDS011;60683;51.730;8.762;2023-03-29T08:34:50;4.28;;;1.80;;
72639;SDS011;60683;51.730;8.762;2023-03-29T08:37:18;4.40;;;2.08;;
72639;SDS011;60683;51.730;8.762;2023-03-29T08:39:45;4.38;;;1.95;;
72639;SDS011;60683;51.730;8.762;2023-03-29T08:42:18;5.03;;;2.42;;
72639;SDS011;60683;51.730;8.762;2023-03-29T08:44:55;3.95;;;1.98;;
72639;SDS011;60683;51.730;8.762;2023-03-29T08:47:31;4.55;;;2.00;;
72639;SDS011;60683;51.730;8.762;2023-03-29T08:50:03;5.88;;;2.47;;
72639;SDS011;60683;51.730;8.762;2023-03-29T08:52:33;4.13;;;2.20;;
72639;SDS011;60683;51.730;8.762;2023-03-29T08:55:02;4.95;;;2.22;;
72639;SDS011;60683;51.730;8.762;2023-03-29T08:57:36;5.15;;;2.10;;
72639;SDS011;60683;51.730;8.762;2023-03-29T09:00:06;6.63;;;2.17;;
72639;SDS011;60683;51.730;8.762;2023-03-29T09:02:39;5.93;;;1.88;;
72639;SDS011;60683;51.730;8.762;2023-03-29T09:05:13;5.78;;;2.17;;
72639;SDS011;60683;51.730;8.762;2023-03-29T09:07:45;4.43;;;1.95;;
72639;SDS011;60683;51.730;8.762;2023-03-29T09:10:13;4.95;;;2.30;;
72639;SDS011;60683;51.730;8.762;2023-03-29T09:12:46;6.90;;;2.20;;
72639;SDS011;60683;51.730;8.762;2023-03-29T09:15:26;5.35;;;2.10;;
72639;SDS011;60683;51.730;8.762;2023-03-29T09:17:57;4.78;;;1.90;;
72639;SDS011;60683;51.730;8.762;2023-03-29T09:20:34;4.15;;;2.13;;
72639;SDS011;60683;51.730;8.762;2023-03-29T09:23:12;3.58;;;1.70;;
72639;SDS011;60683;51.730;8.762;2023-03-29T09:25:49;5.32;;;2.35;;
72639;SDS011;60683;51.730;8.762;2023-03-29T09:28:22;5.40;;;2.40;;
72639;SDS011;60683;51.730;8.762;2023-03-29T09:30:56;5.50;;;2.17;;
72639;SDS011;60683;51.730;8.762;2023-03-29T09:33:31;4.30;;;1.73;;
72639;SDS011;60683;51.730;8.762;2023-03-29T09:36:09;5.43;;;2.30;;
72639;SDS011;60683;51.730;8.762;2023-03-29T09:38:39;3.45;;;1.60;;
72639;SDS011;60683;51.730;8.762;2023-03-29T09:41:34;3.40;;;1.85;;
72639;SDS011;60683;51.730;8.762;2023-03-29T09:44:07;5.65;;;2.13;;
72639;SDS011;60683;51.730;8.762;2023-03-29T09:46:37;5.93;;;1.85;;
72639;SDS011;60683;51.730;8.762;2023-03-29T09:49:08;4.88;;;2.00;;
72639;SDS011;60683;51.730;8.762;2023-03-29T09:51:40;6.65;;;1.90;;
72639;SDS011;60683;51.730;8.762;2023-03-29T09:54:09;7.35;;;2.47;;
72639;SDS011;60683;51.730;8.762;2023-03-29T09:56:37;3.15;;;1.83;;
72639;SDS011;60683;51.730;8.762;2023-03-29T09:59:05;5.78;;;2.28;;
72639;SDS011;60683;51.730;8.762;2023-03-29T10:01:34;5.57;;;2.20;;
72639;SDS011;60683;51.730;8.762;2023-03-29T10:04:05;7.05;;;2.55;;
72639;SDS011;60683;51.730;8.762;2023-03-29T10:06:33;6.03;;;2.30;;
72639;SDS011;60683;51.730;8.762;2023-03-29T10:09:03;7.28;;;2.35;;
72639;SDS011;60683;51.730;8.762;2023-03-29T10:11:31;5.60;;;2.20;;
72639;SDS011;60683;51.730;8.762;2023-03-29T10:14:00;5.75;;;2.60;;
72639;SDS011;60683;51.730;8.762;2023-03-29T10:16:29;7.03;;;2.50;;
72639;SDS011;60683;51.730;8.762;2023-03-29T10:19:06;4.18;;;2.17;;
72639;SDS011;60683;51.730;8.762;2023-03-29T10:21:42;8.13;;;2.95;;
72639;SDS011;60683;51.730;8.762;2023-03-29T10:24:12;5.43;;;2.58;;
72639;SDS011;60683;51.730;8.762;2023-03-29T10:26:44;4.82;;;2.20;;
72639;SDS011;60683;51.730;8.762;2023-03-29T10:29:13;5.90;;;2.80;;
72639;SDS011;60683;51.730;8.762;2023-03-29T10:31:40;5.78;;;2.75;;
72639;SDS011;60683;51.730;8.762;2023-03-29T10:34:09;6.78;;;2.67;;
72639;SDS011;60683;51.730;8.762;2023-03-29T10:36:39;8.15;;;2.72;;
72639;SDS011;60683;51.730;8.762;2023-03-29T10:39:08;6.95;;;2.67;;
72639;SDS011;60683;51.730;8.762;2023-03-29T10:41:38;4.28;;;2.47;;
72639;SDS011;60683;51.730;8.762;2023-03-29T10:44:05;7.53;;;2.70;;
72639;SDS011;60683;51.730;8.762;2023-03-29T10:46:39;7.63;;;2.60;;
72639;SDS011;60683;51.730;8.762;2023-03-29T10:49:14;7.00;;;2.88;;
72639;SDS011;60683;51.730;8.762;2023-03-29T10:51:44;5.07;;;2.88;;
72639;SDS011;60683;51.730;8.762;2023-03-29T10:54:12;11.50;;;3.17;;
72639;SDS011;60683;51.730;8.762;2023-03-29T10:56:42;7.90;;;2.97;;
72639;SDS011;60683;51.730;8.762;2023-03-29T10:59:15;5.80;;;2.35;;
72639;SDS011;60683;51.730;8.762;2023-03-29T11:01:50;5.60;;;2.63;;
72639;SDS011;60683;51.730;8.762;2023-03-29T11:04:32;12.30;;;3.58;;
72639;SDS011;60683;51.730;8.762;2023-03-29T11:07:12;4.68;;;1.95;;
72639;SDS011;60683;51.730;8.762;2023-03-29T11:09:52;5.97;;;2.90;;
72639;SDS011;60683;51.730;8.762;2023-03-29T11:12:27;6.90;;;3.58;;
72639;SDS011;60683;51.730;8.762;2023-03-29T11:15:09;6.43;;;3.10;;
72639;SDS011;60683;51.730;8.762;2023-03-29T11:17:47;8.80;;;3.28;;
72639;SDS011;60683;51.730;8.762;2023-03-29T11:20:22;10.25;;;2.83;;
72639;SDS011;60683;51.730;8.762;2023-03-29T11:22:56;8.27;;;3.05;;
72639;SDS011;60683;51.730;8.762;2023-03-29T11:25:32;5.70;;;2.60;;
72639;SDS011;60683;51.730;8.762;2023-03-29T11:28:09;6.65;;;2.58;;
72639;SDS011;60683;51.730;8.762;2023-03-29T11:30:44;7.57;;;2.90;;
72639;SDS011;60683;51.730;8.762;2023-03-29T11:33:20;8.93;;;3.80;;
72639;SDS011;60683;51.730;8.762;2023-03-29T11:35:53;3.47;;;1.77;;
72639;SDS011;60683;51.730;8.762;2023-03-29T11:38:25;6.90;;;3.28;;
72639;SDS011;60683;51.730;8.762;2023-03-29T11:40:57;7.18;;;3.47;;
72639;SDS011;60683;51.730;8.762;2023-03-29T11:43:30;4.07;;;2.13;;
72639;SDS011;60683;51.730;8.762;2023-03-29T11:46:01;5.88;;;2.85;;
72639;SDS011;60683;51.730;8.762;2023-03-29T11:48:35;7.47;;;2.47;;
72639;SDS011;60683;51.730;8.762;2023-03-29T11:51:08;7.50;;;3.35;;
72639;SDS011;60683;51.730;8.762;2023-03-29T11:53:40;7.28;;;2.75;;
72639;SDS011;60683;51.730;8.762;2023-03-29T11:56:14;7.53;;;3.50;;
72639;SDS011;60683;51.730;8.762;2023-03-29T11:58:49;6.95;;;3.60;;
72639;SDS011;60683;51.730;8.762;2023-03-29T12:01:21;7.70;;;3.40;;
72639;SDS011;60683;51.730;8.762;2023-03-29T12:03:54;7.25;;;3.47;;
72639;SDS011;60683;51.730;8.762;2023-03-29T12:06:23;7.20;;;3.78;;
72639;SDS011;60683;51.730;8.762;2023-03-29T12:08:53;8.80;;;3.38;;
72639;SDS011;60683;51.730;8.762;2023-03-29T12:11:25;7.82;;;2.97;;
72639;SDS011;60683;51.730;8.762;2023-03-29T12:13:57;8.77;;;3.67;;
72639;SDS011;60683;51.730;8.762;2023-03-29T12:16:29;6.38;;;3.47;;
72639;SDS011;60683;51.730;8.762;2023-03-29T12:18:58;10.30;;;3.60;;
72639;SDS011;60683;51.730;8.762;2023-03-29T12:21:29;9.45;;;3.88;;
72639;SDS011;60683;51.730;8.762;2023-03-29T12:23:58;11.43;;;4.00;;
72639;SDS011;60683;51.730;8.762;2023-03-29T12:26:29;7.20;;;3.25;;
72639;SDS011;60683;51.730;8.762;2023-03-29T12:32:14;7.68;;;3.65;;
72639;SDS011;60683;51.730;8.762;2023-03-29T12:34:51;8.10;;;3.50;;
72639;SDS011;60683;51.730;8.762;2023-03-29T12:37:30;8.98;;;4.28;;
72639;SDS011;60683;51.730;8.762;2023-03-29T12:40:09;8.05;;;3.55;;
72639;SDS011;60683;51.730;8.762;2023-03-29T12:42:42;7.63;;;3.60;;
72639;SDS011;60683;51.730;8.762;2023-03-29T12:45:15;8.13;;;3.47;;
72639;SDS011;60683;51.730;8.762;2023-03-29T12:47:47;9.88;;;4.80;;
72639;SDS011;60683;51.730;8.762;2023-03-29T12:50:26;9.82;;;4.47;;
72639;SDS011;60683;51.730;8.762;2023-03-29T12:53:01;8.25;;;3.88;;
72639;SDS011;60683;51.730;8.762;2023-03-29T12:55:31;7.00;;;3.58;;
72639;SDS011;60683;51.730;8.762;2023-03-29T12:58:01;9.70;;;4.10;;
72639;SDS011;60683;51.730;8.762;2023-03-29T13:00:33;12.88;;;3.83;;
72639;SDS011;60683;51.730;8.762;2023-03-29T13:03:19;9.70;;;4.50;;
72639;SDS011;60683;51.730;8.762;2023-03-29T13:05:59;10.48;;;4.00;;
72639;SDS011;60683;51.730;8.762;2023-03-29T13:08:32;9.68;;;4.82;;
72639;SDS011;60683;51.730;8.762;2023-03-29T13:11:01;8.80;;;4.03;;
72639;SDS011;60683;51.730;8.762;2023-03-29T13:13:31;8.20;;;3.95;;
72639;SDS011;60683;51.730;8.762;2023-03-29T13:18:59;10.40;;;4.00;;
72639;SDS011;60683;51.730;8.762;2023-03-29T13:21:38;9.73;;;4.20;;
72639;SDS011;60683;51.730;8.762;2023-03-29T13:24:18;11.18;;;3.88;;
72639;SDS011;60683;51.730;8.762;2023-03-29T13:27:04;10.73;;;4.43;;
72639;SDS011;60683;51.730;8.762;2023-03-29T13:29:39;8.68;;;4.25;;
72639;SDS011;60683;51.730;8.762;2023-03-29T13:32:19;9.63;;;4.40;;
72639;SDS011;60683;51.730;8.762;2023-03-29T13:34:56;8.43;;;4.10;;
72639;SDS011;60683;51.730;8.762;2023-03-29T13:37:29;8.43;;;4.68;;
72639;SDS011;60683;51.730;8.762;2023-03-29T13:40:01;9.48;;;4.15;;
72639;SDS011;60683;51.730;8.762;2023-03-29T13:42:53;11.45;;;4.45;;
72639;SDS011;60683;51.730;8.762;2023-03-29T13:45:24;8.20;;;4.00;;
72639;SDS011;60683;51.730;8.762;2023-03-29T13:48:00;9.10;;;4.78;;
72639;SDS011;60683;51.730;8.762;2023-03-29T13:50:34;7.13;;;3.10;;
72639;SDS011;60683;51.730;8.762;2023-03-29T13:53:04;5.25;;;3.10;;
72639;SDS011;60683;51.730;8.762;2023-03-29T13:55:36;7.03;;;3.50;;
72639;SDS011;60683;51.730;8.762;2023-03-29T13:58:09;7.82;;;3.72;;
72639;SDS011;60683;51.730;8.762;2023-03-29T14:00:40;9.52;;;4.00;;
72639;SDS011;60683;51.730;8.762;2023-03-29T14:03:13;10.00;;;4.22;;
72639;SDS011;60683;51.730;8.762;2023-03-29T14:05:43;7.68;;;3.50;;
72639;SDS011;60683;51.730;8.762;2023-03-29T14:08:15;5.82;;;3.28;;
72639;SDS011;60683;51.730;8.762;2023-03-29T14:10:46;7.50;;;3.70;;
72639;SDS011;60683;51.730;8.762;2023-03-29T14:13:15;7.53;;;3.22;;
72639;SDS011;60683;51.730;8.762;2023-03-29T14:15:44;6.10;;;3.38;;
72639;SDS011;60683;51.730;8.762;2023-03-29T14:20:44;7.07;;;3.28;;
72639;SDS011;60683;51.730;8.762;2023-03-29T14:23:14;8.63;;;2.92;;
72639;SDS011;60683;51.730;8.762;2023-03-29T14:25:46;5.70;;;3.10;;
72639;SDS011;60683;51.730;8.762;2023-03-29T14:28:17;6.63;;;3.13;;
72639;SDS011;60683;51.730;8.762;2023-03-29T14:30:46;6.55;;;3.17;;
72639;SDS011;60683;51.730;8.762;2023-03-29T14:33:23;5.90;;;3.15;;
72639;SDS011;60683;51.730;8.762;2023-03-29T14:35:52;6.18;;;2.42;;
72639;SDS011;60683;51.730;8.762;2023-03-29T14:38:21;6.28;;;2.70;;
72639;SDS011;60683;51.730;8.762;2023-03-29T14:40:49;6.22;;;2.33;;
72639;SDS011;60683;51.730;8.762;2023-03-29T14:43:17;4.47;;;2.40;;
72639;SDS011;60683;51.730;8.762;2023-03-29T14:45:47;5.72;;;2.47;;
72639;SDS011;60683;51.730;8.762;2023-03-29T14:48:15;4.38;;;2.50;;
72639;SDS011;60683;51.730;8.762;2023-03-29T14:50:45;6.80;;;2.72;;
72639;SDS011;60683;51.730;8.762;2023-03-29T14:53:14;6.55;;;2.90;;
72639;SDS011;60683;51.730;8.762;2023-03-29T14:55:44;5.68;;;2.63;;
72639;SDS011;60683;51.730;8.762;2023-03-29T14:58:16;4.97;;;2.53;;
72639;SDS011;60683;51.730;8.762;2023-03-29T15:00:47;6.68;;;2.80;;
72639;SDS011;60683;51.730;8.762;2023-03-29T15:03:16;5.35;;;2.60;;
72639;SDS011;60683;51.730;8.762;2023-03-29T15:05:49;7.80;;;3.00;;
72639;SDS011;60683;51.730;8.762;2023-03-29T15:08:18;5.13;;;2.72;;
72639;SDS011;60683;51.730;8.762;2023-03-29T15:10:53;5.57;;;2.50;;
72639;SDS011;60683;51.730;8.762;2023-03-29T15:13:21;7.35;;;2.20;;
72639;SDS011;60683;51.730;8.762;2023-03-29T15:15:51;6.05;;;3.10;;
72639;SDS011;60683;51.730;8.762;2023-03-29T15:18:20;6.38;;;2.28;;
72639;SDS011;60683;51.730;8.762;2023-03-29T15:20:53;2.65;;;1.55;;
72639;SDS011;60683;51.730;8.762;2023-03-29T15:23:22;2.90;;;1.20;;